Worthing, South Dakota
Current Conditions -  °F | °C
As of 5:56 PM on Wednesday 26 Nov 2014 (Local Time) from KFSD Reporting Station
Overcast Overcast  
Wind Chill:   Ceiling: 9000
Heat Index: 14°   Visibility: 10mi
Dew Point:   Wind: 10mph
Humidity: 77%   Direction: 330°NNW
Pressure: 30.36"   Gusts: NA
Location:  43.33°N, 96.76°W
Report Text: KFSD 262356Z 33009KT 10SM OVC090 M10/M13 A3036 RMK AO2 SLP306 4/001 60000 T11001133 11061 21106 52022
Loading
Personal Weather Stations






























Interactive Weather Map New forecast layout! Learn more

10-Day Weather Forecast

Advertisements
Track Severe Weather on mobile